Time;durP1;ratioP1;P1;durP2;ratioP2;P2;SDS_P1;SDS_P2;PMS_P1;PMS_P2;Temp;Humidity;BMP_temperature;BMP_pressure;BME280_temperature;BME280_humidity;BME280_pressure;Samples;Min_cycle;Max_cycle;Signal;HPM_P1;HPM_P2
2021/05/20 05:32:07;;;;;;;20.95;13.32;;;;;;;11.32;84.64;100056.67;1688566;80;26313;-62
2021/05/20 05:34:34;;;;;;;14.13;10.85;;;;;;;11.57;84.59;100048.28;1628740;86;26628;-62
2021/05/20 05:37:02;;;;;;;16.90;11.12;;;;;;;11.81;83.98;100054.52;1685802;83;27316;-62
2021/05/20 05:39:29;;;;;;;17.95;12.33;;;;;;;12.08;84.34;100059.34;1671550;82;25696;-61
2021/05/20 05:41:55;;;;;;;15.80;12.80;;;;;;;12.36;83.17;100056.19;1681886;83;26399;-62
2021/05/20 05:44:22;;;;;;;14.15;11.18;;;;;;;12.56;82.86;100063.59;1656365;85;25879;-62
2021/05/20 05:46:48;;;;;;;18.15;12.13;;;;;;;12.73;81.91;100066.77;1675470;84;25743;-62
2021/05/20 05:49:21;;;;;;;13.03;10.78;;;;;;;12.91;81.81;100060.67;1680582;84;27903;-62
2021/05/20 05:51:53;;;;;;;15.13;10.08;;;;;;;13.09;80.97;100066.75;1690966;83;25916;-62
2021/05/20 05:54:18;;;;;;;11.70;9.03;;;;;;;13.22;80.91;100060.84;1658954;85;25771;-62
2021/05/20 05:56:44;;;;;;;13.93;9.30;;;;;;;13.39;80.37;100064.00;1670487;84;25768;-62
2021/05/20 05:59:14;;;;;;;14.80;11.45;;;;;;;13.49;79.01;100062.80;1664447;84;26157;-62
2021/05/20 06:01:41;;;;;;;;;;;;;;;13.53;77.70;100068.57;1666656;84;27347;-62
2021/05/20 06:04:09;;;;;;;11.30;8.53;;;;;;;13.58;77.21;100064.28;1672679;83;26076;-62
2021/05/20 06:06:43;;;;;;;13.45;8.95;;;;;;;13.66;76.83;100075.44;1658031;84;25904;-62
2021/05/20 06:09:10;;;;;;;8.95;7.20;;;;;;;13.73;75.87;100070.23;1627520;84;25786;-62
2021/05/20 06:11:37;;;;;;;13.90;10.75;;;;;;;13.76;74.72;100072.30;1669763;83;25676;-62
2021/05/20 06:14:07;;;;;;;13.10;10.05;;;;;;;13.78;74.36;100072.75;1705697;82;27326;-62
2021/05/20 06:16:39;;;;;;;12.90;8.45;;;;;;;13.80;74.14;100072.62;1703333;81;34933;-61
2021/05/20 06:19:05;;;;;;;10.95;6.58;;;;;;;13.90;74.29;100081.50;1697980;83;25923;-62
2021/05/20 06:21:32;;;;;;;11.60;6.78;;;;;;;13.96;74.48;100080.13;1711370;82;25782;-62
2021/05/20 06:23:59;;;;;;;9.25;5.42;;;;;;;14.02;73.40;100082.88;1696236;82;25652;-61
2021/05/20 06:26:26;;;;;;;10.40;9.35;;;;;;;14.10;72.92;100078.48;1705670;82;28105;-61
2021/05/20 06:28:55;;;;;;;12.13;7.62;;;;;;;14.19;72.87;100079.95;1712170;82;25898;-61
2021/05/20 06:31:22;;;;;;;7.80;6.92;;;;;;;14.36;73.29;100082.24;1701207;82;25951;-62
2021/05/20 06:33:49;;;;;;;7.75;6.92;;;;;;;14.55;72.54;100085.18;1703127;82;25791;-62
2021/05/20 06:36:17;;;;;;;8.90;7.28;;;;;;;14.67;71.50;100088.50;1701341;82;25807;-62
2021/05/20 06:38:44;;;;;;;8.60;5.28;;;;;;;14.81;71.80;100085.41;1705069;82;27316;-62
2021/05/20 06:41:10;;;;;;;6.40;5.53;;;;;;;14.96;70.85;100088.01;1698979;82;25750;-62
2021/05/20 06:43:38;;;;;;;7.30;5.78;;;;;;;15.18;71.10;100083.98;1696740;82;25687;-62
2021/05/20 06:46:06;;;;;;;9.65;5.05;;;;;;;15.56;70.49;100087.38;1702839;82;25873;-63
2021/05/20 06:48:34;;;;;;;11.22;5.78;;;;;;;15.89;69.83;100082.27;1700821;81;25769;-62
2021/05/20 06:51:02;;;;;;;6.55;5.37;;;;;;;16.26;69.85;100089.64;1695627;82;27301;-63
2021/05/20 06:53:30;;;;;;;6.53;5.60;;;;;;;16.60;69.26;100090.03;1699685;82;25844;-61
2021/05/20 06:56:00;;;;;;;8.08;7.05;;;;;;;16.70;65.03;100089.52;1705973;83;25727;-63
2021/05/20 07:01:11;;;;;;;6.03;5.22;;;;;;;16.89;64.34;100088.80;1680711;83;26559;-62
2021/05/20 07:03:38;;;;;;;9.78;6.05;;;;;;;16.92;64.06;100083.17;1668417;84;28055;-62
2021/05/20 07:06:06;;;;;;;4.78;4.42;;;;;;;17.15;63.44;100084.08;1690719;83;25824;-62
2021/05/20 07:08:33;;;;;;;8.18;3.00;;;;;;;17.49;64.11;100078.12;1658510;84;25774;-62
2021/05/20 07:11:00;;;;;;;4.15;3.67;;;;;;;17.84;63.62;100085.40;1689550;82;25921;-63
2021/05/20 07:13:26;;;;;;;7.55;4.40;;;;;;;18.12;61.73;100074.20;1684785;83;25829;-63
2021/05/20 07:15:53;;;;;;;5.17;3.62;;;;;;;18.36;60.74;100070.87;1666881;83;28298;-63
2021/05/20 07:18:19;;;;;;;4.92;3.30;;;;;;;18.60;61.25;100074.56;1709211;82;27171;-62
2021/05/20 07:20:46;;;;;;;6.03;2.58;;;;;;;18.95;61.17;100079.58;1676969;84;25821;-63
2021/05/20 07:23:19;;;;;;;2.85;2.20;;;;;;;19.29;59.98;100074.95;1689075;83;25777;-63
2021/05/20 07:25:46;;;;;;;4.15;1.82;;;;;;;19.56;58.58;100068.79;1679026;83;25916;-63
2021/05/20 07:28:13;;;;;;;4.75;2.08;;;;;;;19.72;57.09;100065.81;1675773;83;27877;-63
2021/05/20 07:30:40;;;;;;;3.95;2.33;;;;;;;19.97;56.58;100070.77;1684154;83;25806;-62
2021/05/20 07:33:08;;;;;;;6.30;2.02;;;;;;;20.25;56.28;100070.83;1671820;82;25859;-63
2021/05/20 07:35:34;;;;;;;2.75;1.80;;;;;;;20.51;54.67;100073.95;1677952;83;25813;-62
2021/05/20 07:38:01;;;;;;;5.10;1.75;;;;;;;20.61;53.73;100077.95;1688981;83;25750;-62
2021/05/20 07:40:27;;;;;;;1.90;1.80;;;;;;;20.50;51.62;100084.77;1673232;84;27916;-62
2021/05/20 07:42:54;;;;;;;3.77;1.80;;;;;;;20.43;51.16;100081.37;1683130;83;25749;-62
2021/05/20 07:45:20;;;;;;;5.62;1.82;;;;;;;20.53;51.11;100079.29;1682495;83;26423;-62
2021/05/20 07:47:48;;;;;;;2.15;1.37;;;;;;;20.81;51.78;100078.52;1673198;83;25964;-62
2021/05/20 07:50:16;;;;;;;3.70;1.30;;;;;;;21.06;51.66;100069.81;1692374;83;25827;-62
2021/05/20 07:52:43;;;;;;;2.37;1.60;;;;;;;21.39;50.59;100072.69;1680520;83;28092;-62
2021/05/20 07:55:12;;;;;;;1.62;1.40;;;;;;;21.60;49.35;100079.64;1683894;83;25754;-62
2021/05/20 07:57:38;;;;;;;1.70;1.42;;;;;;;21.81;49.11;100076.73;1678209;81;25735;-62
2021/05/20 08:00:09;;;;;;;2.98;1.20;;;;;;;22.09;49.02;100083.48;1702236;82;25744;-62
2021/05/20 08:02:55;;;;;;;5.28;1.85;;;;;;;22.44;48.22;100077.78;1694278;82;25731;-61
2021/05/20 08:05:29;;;;;;;1.67;1.57;;;;;;;22.79;47.95;100081.68;1697443;82;27345;-61
2021/05/20 08:08:01;;;;;;;2.05;1.65;;;;;;;23.22;47.45;100080.95;1700485;82;27163;-61
2021/05/20 08:12:49;;;;;;;1.40;1.30;;;;;;;23.46;44.66;100071.59;1708862;81;25812;-61
2021/05/20 08:15:18;;;;;;;2.80;1.67;;;;;;;23.25;43.57;100068.35;1698691;81;25859;-61
2021/05/20 08:17:44;;;;;;;1.50;1.40;;;;;;;23.11;44.12;100072.73;1708604;83;27378;-61
2021/05/20 08:20:12;;;;;;;1.85;1.65;;;;;;;23.16;43.83;100071.55;1707937;81;25745;-61
2021/05/20 08:22:38;;;;;;;2.40;1.30;;;;;;;23.32;43.17;100069.69;1708908;81;25859;-61
2021/05/20 08:25:07;;;;;;;2.02;1.40;;;;;;;23.22;41.68;100058.89;1704520;81;25955;-61
2021/05/20 08:27:33;;;;;;;1.32;1.22;;;;;;;23.40;42.75;100073.22;1694128;82;25796;-62
2021/05/20 08:30:00;;;;;;;1.17;1.07;;;;;;;23.40;42.75;100073.22;1702674;82;27610;-61
2021/05/20 08:32:26;;;;;;;3.15;1.10;;;;;;;23.55;41.18;100065.62;1699031;81;25600;-61
2021/05/20 08:34:53;;;;;;;4.72;1.20;;;;;;;23.82;41.58;100071.41;1699886;81;25719;-61
2021/05/20 08:37:19;;;;;;;2.30;1.37;;;;;;;24.08;40.24;100054.08;1706665;81;26607;-60
2021/05/20 08:39:46;;;;;;;1.85;1.30;;;;;;;24.28;39.27;100055.09;1704448;82;25647;-60
2021/05/20 08:42:13;;;;;;;2.60;1.20;;;;;;;24.17;39.33;100061.29;1697974;82;27530;-60
2021/05/20 08:44:40;;;;;;;2.22;2.00;;;;;;;24.35;39.06;100058.38;1683665;83;25945;-60
2021/05/20 08:47:07;;;;;;;0.93;0.90;;;;;;;24.37;38.23;100055.98;1674281;84;25737;-60
2021/05/20 08:49:34;;;;;;;4.05;1.00;;;;;;;24.38;38.41;100055.58;1649307;84;25735;-60
2021/05/20 08:52:01;;;;;;;1.50;1.00;;;;;;;24.68;38.56;100058.27;1676919;83;25547;-60
2021/05/20 08:54:28;;;;;;;1.27;1.17;;;;;;;24.84;37.46;100056.91;1702756;81;27382;-61
2021/05/20 08:56:55;;;;;;;2.45;1.12;;;;;;;24.91;36.93;100060.40;1699852;81;25640;-59
2021/05/20 08:59:25;;;;;;;3.67;1.17;;;;;;;25.06;36.90;100057.45;1705019;81;25684;-60
2021/05/20 09:01:52;;;;;;;1.40;1.30;;;;;;;25.22;37.04;100054.88;1696924;81;25913;-60
2021/05/20 09:04:25;;;;;;;1.07;0.98;;;;;;;25.51;36.83;100055.92;1700562;81;25801;-59
2021/05/20 09:06:54;;;;;;;1.42;0.90;;;;;;;25.93;36.58;100057.84;1697482;81;27329;-59
2021/05/20 09:09:26;;;;;;;2.50;0.97;;;;;;;26.24;35.46;100073.04;1710898;82;27179;-60
2021/05/20 09:11:56;;;;;;;2.70;1.30;;;;;;;26.28;33.18;100068.98;1700588;82;25899;-60
2021/05/20 09:14:40;;;;;;;1.90;0.90;;;;;;;25.83;33.93;100058.22;1708964;81;25837;-61
2021/05/20 09:17:19;;;;;;;3.27;1.60;;;;;;;26.00;33.55;100062.52;1705994;82;26343;-61
2021/05/20 09:19:57;;;;;;;2.00;1.00;;;;;;;25.88;33.89;100066.05;1680104;82;28137;-60
2021/05/20 09:22:24;;;;;;;1.20;0.98;;;;;;;26.35;35.09;100054.83;1703961;82;26355;-61
2021/05/20 09:24:54;;;;;;;3.00;1.00;;;;;;;26.83;34.55;100054.36;1707917;81;25658;-60
2021/05/20 09:27:36;;;;;;;1.70;1.10;;;;;;;27.10;33.81;100054.80;1697990;82;25710;-59
2021/05/20 09:30:26;;;;;;;1.85;1.10;;;;;;;26.93;32.88;100054.56;1694848;82;26435;-61
2021/05/20 09:33:08;;;;;;;1.20;1.10;;;;;;;26.91;33.19;100059.77;1674030;82;27397;-61
2021/05/20 09:35:50;;;;;;;1.70;0.95;;;;;;;27.07;32.83;100063.97;1707809;82;25717;-61
2021/05/20 09:38:20;;;;;;;1.32;1.10;;;;;;;27.13;32.37;100060.11;1710561;82;25675;-61
2021/05/20 09:40:58;;;;;;;3.92;1.77;;;;;;;27.27;32.39;100053.47;1709673;82;25672;-66
2021/05/20 09:43:39;;;;;;;1.90;1.20;;;;;;;27.23;32.04;100056.33;1711135;81;26459;-66
2021/05/20 09:46:18;;;;;;;2.15;1.15;;;;;;;27.22;32.01;100060.30;1695154;82;27917;-61
2021/05/20 09:48:48;;;;;;;1.98;1.10;;;;;;;27.05;30.76;100065.62;1705222;82;26504;-61
2021/05/20 09:51:26;;;;;;;1.62;1.25;;;;;;;26.47;30.40;100053.59;1696509;81;25749;-60
2021/05/20 09:53:54;;;;;;;2.77;1.27;;;;;;;25.88;30.53;100068.82;1704381;83;25726;-61
2021/05/20 09:56:38;;;;;;;2.65;1.00;;;;;;;25.58;31.28;100064.73;1706994;82;25855;-60
2021/05/20 09:59:04;;;;;;;3.47;1.25;;;;;;;25.51;31.15;100060.07;1704943;82;28114;-60
2021/05/20 10:01:31;;;;;;;7.92;1.20;;;;;;;25.57;32.05;100062.53;1704391;82;25628;-60
2021/05/20 10:03:58;;;;;;;3.20;1.35;;;;;;;25.95;32.38;100047.77;1702185;81;25795;-59
2021/05/20 10:06:40;;;;;;;1.67;1.12;;;;;;;26.46;32.61;100052.66;1704726;81;26196;-60
2021/05/20 10:09:14;;;;;;;1.20;0.90;;;;;;;26.73;31.63;100047.62;1707924;82;25738;-60
2021/05/20 10:11:42;;;;;;;1.62;0.98;;;;;;;26.65;31.00;100042.83;1712689;82;27323;-61
2021/05/20 10:14:09;;;;;;;4.12;1.40;;;;;;;26.45;30.59;100051.08;1714109;82;25837;-60
2021/05/20 10:16:40;;;;;;;1.70;1.37;;;;;;;26.06;30.71;100052.54;1717420;82;25841;-60
2021/05/20 10:19:08;;;;;;;4.30;1.15;;;;;;;26.17;31.74;100057.89;1709923;81;25939;-60
2021/05/20 10:21:35;;;;;;;1.42;0.90;;;;;;;26.56;30.60;100039.20;1697355;82;25793;-60
2021/05/20 10:24:01;;;;;;;2.90;1.22;;;;;;;26.95;31.59;100046.00;1714707;82;27311;-60
2021/05/20 10:26:28;;;;;;;3.77;0.85;;;;;;;27.54;31.16;100045.74;1708367;82;25770;-60
2021/05/20 10:28:55;;;;;;;3.35;1.32;;;;;;;27.99;30.76;100043.55;1706813;82;25946;-66
2021/05/20 10:31:23;;;;;;;1.37;1.07;;;;;;;28.12;30.03;100056.92;1705910;82;25676;-66
2021/05/20 10:33:49;;;;;;;1.15;0.93;;;;;;;28.01;29.04;100051.64;1713428;82;25693;-66
2021/05/20 10:36:27;;;;;;;1.00;0.90;;;;;;;27.78;28.51;100051.77;1688770;83;28046;-65
2021/05/20 10:38:54;;;;;;;2.35;1.37;;;;;;;27.61;27.78;100047.58;1687091;83;26377;-66
2021/05/20 10:41:25;;;;;;;1.05;0.95;;;;;;;27.45;27.80;100044.77;1693435;83;25731;-65
2021/05/20 10:44:09;;;;;;;1.55;1.45;;;;;;;27.52;29.13;100043.23;1711799;82;25795;-65
2021/05/20 10:47:02;;;;;;;3.45;2.08;;;;;;;27.61;28.88;100044.80;1700086;83;25829;-66
2021/05/20 10:49:53;;;;;;;1.22;1.10;;;;;;;27.09;28.36;100051.86;1711575;81;27316;-66
2021/05/20 10:52:45;;;;;;;1.42;1.32;;;;;;;26.56;29.09;100050.87;1696730;82;25701;-64
2021/05/20 10:55:14;;;;;;;1.82;1.35;;;;;;;26.96;27.95;100051.71;1709635;81;25985;-64
2021/05/20 10:58:00;;;;;;;2.98;1.10;;;;;;;26.61;28.33;100049.80;1703642;82;26282;-64
2021/05/20 11:00:41;;;;;;;1.67;1.57;;;;;;;26.24;29.12;100050.86;1705711;82;25681;-64
2021/05/20 11:03:10;;;;;;;3.37;2.27;;;;;;;26.61;29.56;100051.77;1704749;83;27353;-64
2021/05/20 11:05:48;;;;;;;2.08;1.30;;;;;;;26.94;28.93;100051.36;1707483;82;32386;-64
2021/05/20 11:08:41;;;;;;;1.55;1.17;;;;;;;27.42;28.87;100043.64;1707438;82;25729;-63
2021/05/20 11:11:25;;;;;;;1.35;1.25;;;;;;;27.66;28.55;100060.95;1710385;81;25710;-65
2021/05/20 11:13:51;;;;;;;3.40;1.12;;;;;;;27.39;27.99;100054.99;1688994;82;25909;-63
2021/05/20 11:16:24;;;;;;;1.10;1.10;;;;;;;27.74;28.43;100054.02;1700932;82;28319;-64
2021/05/20 11:18:51;;;;;;;2.98;1.60;;;;;;;28.32;28.58;100050.64;1709679;81;25729;-63
2021/05/20 11:21:18;;;;;;;2.95;1.00;;;;;;;28.44;26.96;100060.88;1714393;82;25689;-64
2021/05/20 11:23:45;;;;;;;1.27;1.17;;;;;;;27.90;26.94;100060.80;1711892;82;27865;-63
2021/05/20 11:26:16;;;;;;;1.57;1.22;;;;;;;27.98;27.03;100048.95;1705832;83;25730;-64
2021/05/20 11:29:01;;;;;;;1.30;1.20;;;;;;;28.24;27.45;100047.09;1701476;83;27319;-65
2021/05/20 11:31:30;;;;;;;3.05;2.85;;;;;;;28.79;27.72;100043.06;1615971;85;25836;-64
2021/05/20 11:34:36;;;;;;;1.50;1.40;;;;;;;29.22;26.54;100048.22;1626312;85;25757;-61
2021/05/20 11:36:53;;;;;;;2.52;1.22;;;;;;;29.30;24.97;100053.56;1618620;87;25898;-61
2021/05/20 11:39:22;;;;;;;1.42;1.10;;;;;;;28.83;25.26;100050.72;1592963;87;25970;-61
2021/05/20 11:41:52;;;;;;;2.25;1.00;;;;;;;28.31;25.84;100056.63;1592435;88;27468;-61
2021/05/20 11:44:28;;;;;;;1.42;1.32;;;;;;;27.94;26.30;100050.40;1602308;87;25750;-61
2021/05/20 11:47:14;;;;;;;1.75;1.30;;;;;;;28.00;26.90;100051.45;1609067;87;25793;-60
2021/05/20 11:49:43;;;;;;;1.75;1.32;;;;;;;27.47;26.59;100049.30;1607234;88;25797;-60
2021/05/20 11:52:12;;;;;;;3.45;3.20;;;;;;;26.59;26.02;100051.42;1593487;88;25860;-59
2021/05/20 11:54:44;;;;;;;3.27;3.08;;;;;;;25.81;26.61;100052.90;1655693;85;27436;-59
2021/05/20 11:57:10;;;;;;;4.35;3.87;;;;;;;25.51;27.72;100059.46;1652932;84;25875;-63
2021/05/20 11:59:42;;;;;;;6.05;5.62;;;;;;;25.72;28.28;100054.20;1619878;86;25911;-64
2021/05/20 12:02:26;;;;;;;4.92;2.22;;;;;;;26.16;28.81;100053.57;1645414;84;25834;-64
2021/05/20 12:05:02;;;;;;;1.72;1.62;;;;;;;26.51;28.36;100048.01;1654294;86;25739;-63
2021/05/20 12:07:31;;;;;;;3.90;3.62;;;;;;;26.68;28.02;100050.30;1658790;85;28144;-60
2021/05/20 12:10:19;;;;;;;2.65;2.00;;;;;;;26.21;27.59;100041.39;1673419;84;25677;-60
2021/05/20 12:13:00;;;;;;;2.55;2.35;;;;;;;25.80;27.76;100045.20;1642661;84;25615;-60
2021/05/20 12:15:28;;;;;;;1.00;1.00;;;;;;;25.48;28.42;100042.30;1677953;84;25760;-61
2021/05/20 12:18:00;;;;;;;2.35;1.72;;;;;;;25.57;28.91;100044.54;1664096;83;25776;-61
2021/05/20 12:20:30;;;;;;;2.12;2.00;;;;;;;25.74;28.61;100039.94;1673432;84;27457;-60
2021/05/20 12:22:58;;;;;;;6.05;2.92;;;;;;;25.60;28.42;100034.63;1670638;84;25763;-60
2021/05/20 12:25:27;;;;;;;6.00;5.53;;;;;;;25.25;27.58;100036.07;1679948;83;25912;-60
2021/05/20 12:27:56;;;;;;;4.35;3.75;;;;;;;24.72;27.86;100031.95;1680390;83;26588;-60
2021/05/20 12:30:37;;;;;;;2.83;2.62;;;;;;;24.24;28.46;100023.92;1668109;84;25764;-60
2021/05/20 12:33:07;;;;;;;2.87;2.75;;;;;;;23.96;29.32;100040.16;1676492;83;27406;-60
2021/05/20 12:35:40;;;;;;;3.83;2.80;;;;;;;24.28;30.18;100037.13;1676412;84;25922;-60
2021/05/20 12:38:18;;;;;;;3.90;3.65;;;;;;;24.49;29.51;100034.73;1668545;84;25805;-61
2021/05/20 12:40:54;;;;;;;3.62;3.33;;;;;;;24.48;29.73;100035.92;1683113;84;25776;-61
2021/05/20 12:43:38;;;;;;;2.15;2.05;;;;;;;24.33;29.52;100032.53;1685682;83;25935;-60
2021/05/20 12:46:13;;;;;;;3.65;3.45;;;;;;;23.99;29.68;100035.98;1679540;83;27338;-61
2021/05/20 12:48:46;;;;;;;3.50;1.20;;;;;;;24.30;30.71;100046.39;1673771;84;25678;-60
2021/05/20 12:51:40;;;;;;;3.22;2.92;;;;;;;24.86;30.84;100043.45;1676983;84;26481;-60
2021/05/20 12:54:09;;;;;;;3.83;3.50;;;;;;;25.48;30.25;100037.37;1586386;88;25788;-60
2021/05/20 12:56:45;;;;;;;1.25;1.15;;;;;;;25.87;29.20;100036.77;1566490;89;25864;-60
2021/05/20 12:59:14;;;;;;;2.47;1.35;;;;;;;25.99;28.97;100029.88;1552473;90;27329;-60
2021/05/20 13:01:48;;;;;;;4.87;1.37;;;;;;;25.71;28.31;100031.08;1569026;89;25707;-60
2021/05/20 13:04:27;;;;;;;3.75;3.12;;;;;;;25.59;28.75;100024.16;1586476;88;26434;-60
2021/05/20 13:07:12;;;;;;;3.47;3.17;;;;;;;25.70;28.36;100028.14;1583172;88;25941;-61
2021/05/20 13:09:42;;;;;;;3.55;2.22;;;;;;;25.44;28.71;100029.72;1567204;89;25963;-60
2021/05/20 13:12:20;;;;;;;1.20;1.10;;;;;;;24.98;28.33;100039.56;1586790;88;28098;-61
2021/05/20 13:15:09;;;;;;;3.70;3.40;;;;;;;24.47;28.27;100042.66;1571867;88;25851;-61
2021/05/20 13:23:25;;;;;;;2.35;2.15;;;;;;;24.04;29.58;100031.41;1580630;88;25911;-61
2021/05/20 13:25:52;;;;;;;3.30;3.10;;;;;;;24.26;29.28;100035.95;1582897;88;29547;-60
2021/05/20 13:28:19;;;;;;;7.58;5.12;;;;;;;24.06;28.72;100040.67;1587826;88;25899;-60
2021/05/20 13:30:57;;;;;;;4.17;3.72;;;;;;;23.67;28.74;100047.23;1605918;86;25954;-60
2021/05/20 13:33:26;;;;;;;2.25;2.15;;;;;;;23.40;29.57;100048.38;1627687;86;25845;-60
2021/05/20 13:35:53;;;;;;;4.58;4.17;;;;;;;23.63;29.65;100046.45;1603009;87;25859;-59
2021/05/20 13:38:20;;;;;;;2.95;2.75;;;;;;;23.82;29.55;100051.50;1642816;86;27426;-60
2021/05/20 13:40:49;;;;;;;3.17;2.98;;;;;;;23.79;29.60;100059.78;1638154;85;25687;-60
2021/05/20 13:43:15;;;;;;;9.28;8.75;;;;;;;23.53;29.43;100048.11;1636799;84;26433;-60
2021/05/20 13:45:42;;;;;;;2.75;2.55;;;;;;;23.31;29.90;100045.45;1644302;85;25702;-60
2021/05/20 13:48:09;;;;;;;4.58;3.17;;;;;;;23.14;30.20;100044.95;1623776;86;25799;-60
2021/05/20 13:50:36;;;;;;;3.67;3.37;;;;;;;22.96;30.33;100044.98;1623279;86;27335;-59
2021/05/20 13:53:04;;;;;;;4.35;2.98;;;;;;;22.80;30.93;100041.88;1633843;86;25825;-60
2021/05/20 13:55:32;;;;;;;5.95;5.65;;;;;;;22.81;30.98;100033.81;1638215;85;26595;-60
2021/05/20 13:57:58;;;;;;;5.37;5.03;;;;;;;22.68;30.94;100041.14;1639420;86;25791;-60
2021/05/20 14:00:30;;;;;;;3.02;2.83;;;;;;;22.52;31.10;100042.15;1631023;86;25975;-60
2021/05/20 14:03:00;;;;;;;3.33;3.12;;;;;;;22.47;31.55;100043.33;1586037;87;27400;-60
2021/05/20 14:05:25;;;;;;;2.87;2.77;;;;;;;22.51;31.70;100048.26;1592985;88;25966;-60
2021/05/20 14:07:52;;;;;;;3.10;3.00;;;;;;;22.53;31.48;100040.98;1631781;86;25706;-60
2021/05/20 14:10:19;;;;;;;4.62;4.33;;;;;;;22.71;31.74;100044.48;1644942;86;25845;-59
2021/05/20 14:12:46;;;;;;;5.20;4.75;;;;;;;22.87;31.33;100046.02;1643253;85;25743;-60
2021/05/20 14:15:14;;;;;;;5.83;4.20;;;;;;;22.71;31.16;100047.24;1642627;85;29513;-60
2021/05/20 14:17:45;;;;;;;3.35;3.15;;;;;;;22.54;31.44;100050.80;1633047;86;25877;-60
2021/05/20 14:20:11;;;;;;;4.08;3.83;;;;;;;22.29;31.35;100050.25;1648830;85;25703;-60
2021/05/20 14:22:39;;;;;;;5.60;4.33;;;;;;;22.10;31.75;100042.34;1638432;86;25855;-59
2021/05/20 14:25:07;;;;;;;4.08;3.77;;;;;;;21.88;31.87;100045.11;1606309;87;26183;-59
2021/05/20 14:27:34;;;;;;;5.63;5.33;;;;;;;21.70;32.06;100038.79;1636316;85;27385;-60
2021/05/20 14:30:00;;;;;;;5.28;4.42;;;;;;;21.52;32.39;100040.12;1643242;85;25889;-60
2021/05/20 14:32:27;;;;;;;5.37;5.03;;;;;;;21.39;32.55;100044.58;1645703;85;25702;-59
2021/05/20 14:34:54;;;;;;;3.47;3.27;;;;;;;21.25;32.87;100038.45;1611521;87;26241;-59
2021/05/20 14:37:21;;;;;;;4.08;3.77;;;;;;;21.13;32.98;100046.25;1640673;85;25799;-60
2021/05/20 14:39:51;;;;;;;5.33;4.92;;;;;;;20.97;33.10;100035.59;1644011;86;27339;-60
2021/05/20 14:42:19;;;;;;;6.33;5.92;;;;;;;20.83;33.48;100041.21;1631254;86;25869;-61
2021/05/20 14:44:45;;;;;;;5.75;4.22;;;;;;;20.73;33.84;100038.41;1625559;86;25486;-58
2021/05/20 14:47:12;;;;;;;4.53;2.08;;;;;;;20.67;33.70;100042.09;1635804;85;25893;-60
2021/05/20 14:49:52;;;;;;;2.50;2.30;;;;;;;20.60;34.12;100041.46;1651918;85;25713;-61
2021/05/20 14:52:35;;;;;;;2.87;1.50;;;;;;;20.64;34.22;100042.28;1640746;86;27458;-60
2021/05/20 15:06:15;;;;;;;4.58;4.08;;;;;;;20.42;34.18;100041.33;1596268;87;29460;-59
2021/05/20 15:08:45;;;;;;;4.03;3.30;;;;;;;20.46;34.06;100041.35;1648897;85;25837;-60
2021/05/20 15:14:15;;;;;;;4.37;4.08;;;;;;;20.58;34.53;100025.14;1639331;86;26079;-61
2021/05/20 15:16:59;;;;;;;7.87;7.37;;;;;;;20.60;33.79;100026.91;1631474;85;25699;-60
2021/05/20 15:19:15;;;;;;;7.92;7.40;;;;;;;20.51;33.37;100039.62;1626958;86;27358;-60
2021/05/20 15:21:42;;;;;;;3.40;3.20;;;;;;;20.41;33.24;100041.12;1640210;86;25710;-60
2021/05/20 15:24:09;;;;;;;4.62;4.30;;;;;;;20.39;33.60;100050.33;1648722;84;26650;-63
2021/05/20 15:26:37;;;;;;;10.68;10.10;;;;;;;20.32;33.36;100042.83;1617683;85;26570;-63
2021/05/20 15:29:05;;;;;;;3.92;3.72;;;;;;;20.19;33.46;100048.41;1636718;84;25810;-63
2021/05/20 15:31:32;;;;;;;7.85;7.45;;;;;;;20.06;33.77;100042.44;1646571;86;27400;-63
2021/05/20 15:34:01;;;;;;;6.28;5.83;;;;;;;19.88;33.98;100042.86;1619636;86;25920;-64
2021/05/20 15:36:27;;;;;;;9.28;8.68;;;;;;;19.80;34.30;100046.70;1641375;85;25779;-63
2021/05/20 15:38:53;;;;;;;5.30;5.00;;;;;;;19.71;34.62;100048.34;1633926;86;26408;-64
2021/05/20 15:41:21;;;;;;;2.87;1.40;;;;;;;19.65;34.67;100052.03;1641978;85;25988;-62
2021/05/20 15:43:47;;;;;;;8.18;7.72;;;;;;;19.54;35.13;100047.00;1615794;86;27354;-62
2021/05/20 15:46:17;;;;;;;6.65;6.05;;;;;;;19.45;35.45;100041.82;1615192;86;27234;-63
2021/05/20 15:51:30;;;;;;;6.15;5.22;;;;;;;19.36;36.08;100048.97;1625066;86;27765;-62
2021/05/20 15:53:58;;;;;;;2.12;1.05;;;;;;;19.34;35.98;100055.42;1636438;86;26170;-63
2021/05/20 15:56:25;;;;;;;1.75;1.45;;;;;;;19.27;36.16;100055.91;1626114;86;27424;-64
2021/05/20 15:58:51;;;;;;;7.45;6.87;;;;;;;19.22;36.49;100055.08;1652855;85;25798;-63
2021/05/20 16:01:17;;;;;;;7.50;7.00;;;;;;;19.19;36.51;100059.16;1612117;87;26407;-63
2021/05/20 16:03:45;;;;;;;3.52;3.33;;;;;;;19.19;36.98;100061.89;1575389;89;25836;-62
2021/05/20 16:06:12;;;;;;;5.20;4.83;;;;;;;19.22;37.22;100066.61;1632480;86;25814;-62
2021/05/20 16:08:49;;;;;;;3.70;3.42;;;;;;;19.19;36.82;100069.53;1634416;86;29577;-63
2021/05/20 16:16:23;;;;;;;4.33;3.87;;;;;;;18.82;36.76;100070.77;1553179;90;26028;-62
2021/05/20 16:18:49;;;;;;;7.65;6.67;;;;;;;18.66;37.02;100072.29;1556912;90;25938;-62
2021/05/20 16:21:19;;;;;;;5.92;5.42;;;;;;;18.59;37.48;100068.89;1541457;89;28043;-63
2021/05/20 16:37:04;;;;;;;8.03;7.53;;;;;;;18.21;38.20;100078.84;1548274;91;25846;-60
2021/05/20 16:39:27;;;;;;;4.83;4.40;;;;;;;18.11;38.36;100082.97;1543594;90;26048;-60
2021/05/20 16:41:53;;;;;;;3.62;1.42;;;;;;;18.04;38.49;100078.75;1553447;90;25830;-60
2021/05/20 16:44:20;;;;;;;2.47;1.35;;;;;;;17.88;38.35;100084.34;1549143;90;26054;-59
2021/05/20 16:46:46;;;;;;;8.38;7.67;;;;;;;17.74;38.48;100090.88;1565883;85;28142;-59
2021/05/20 16:49:14;;;;;;;8.25;7.72;;;;;;;17.63;38.96;100083.06;1635257;85;25924;-59
2021/05/20 16:51:41;;;;;;;8.68;7.95;;;;;;;17.57;39.12;100082.58;1634141;85;25844;-59
2021/05/20 16:54:13;;;;;;;8.18;7.58;;;;;;;17.54;39.39;100083.30;1637046;86;26334;-57
2021/05/20 16:56:49;;;;;;;12.58;11.73;;;;;;;17.48;39.30;100085.51;1581686;88;25993;-58
2021/05/20 16:59:12;;;;;;;10.10;9.45;;;;;;;17.41;39.19;100088.69;1642970;85;27356;-59
2021/05/20 17:01:38;;;;;;;11.00;10.30;;;;;;;17.33;39.39;100083.09;1646903;86;25944;-59
2021/05/20 17:04:05;;;;;;;8.60;7.97;;;;;;;17.31;39.70;100084.58;1631671;86;25891;-58
2021/05/20 17:06:32;;;;;;;9.03;8.40;;;;;;;17.28;39.90;100084.74;1624330;85;25952;-59
2021/05/20 17:08:58;;;;;;;9.45;8.85;;;;;;;17.29;40.21;100087.67;1643103;86;25862;-59
2021/05/20 17:11:25;;;;;;;14.10;13.20;;;;;;;17.28;40.34;100084.74;1643283;85;27347;-62
2021/05/20 17:13:52;;;;;;;7.97;6.72;;;;;;;17.27;40.37;100089.98;1644215;86;26461;-62
2021/05/20 17:16:20;;;;;;;7.78;7.15;;;;;;;17.23;40.56;100091.86;1627677;86;25894;-63
2021/05/20 17:18:47;;;;;;;6.72;6.15;;;;;;;17.20;40.93;100096.67;1649043;86;25882;-62
2021/05/20 17:21:16;;;;;;;5.62;5.22;;;;;;;17.14;40.89;100093.41;1637155;85;26154;-62
2021/05/20 17:23:42;;;;;;;6.28;5.92;;;;;;;17.08;41.02;100093.49;1642548;86;27453;-64
2021/05/20 17:26:12;;;;;;;8.90;8.30;;;;;;;17.04;41.24;100093.97;1634633;86;26229;-64
2021/05/20 17:28:38;;;;;;;8.93;8.33;;;;;;;16.94;41.16;100098.08;1640879;86;25931;-62
2021/05/20 17:31:05;;;;;;;7.37;6.75;;;;;;;16.88;41.39;100094.61;1643824;84;26345;-64
2021/05/20 17:33:33;;;;;;;5.67;5.28;;;;;;;16.79;41.46;100101.03;1643630;85;26027;-64
2021/05/20 17:36:01;;;;;;;9.95;9.25;;;;;;;16.71;41.68;100099.86;1597673;88;27390;-63
2021/05/20 17:38:30;;;;;;;13.58;12.68;;;;;;;16.63;41.97;100097.52;1585884;87;25746;-63
2021/05/20 17:40:58;;;;;;;;;;;;;;;16.57;42.13;100094.86;1644029;85;25760;-63
2021/05/20 17:43:27;;;;;;;10.85;8.35;;;;;;;16.48;42.38;100099.14;1635989;84;26096;-63
2021/05/20 17:45:59;;;;;;;6.22;5.72;;;;;;;16.39;42.59;100098.52;1653224;85;25988;-62
2021/05/20 17:48:29;;;;;;;12.00;11.15;;;;;;;16.30;42.84;100100.64;1644883;86;28085;-62
2021/05/20 17:50:55;;;;;;;10.68;9.88;;;;;;;16.22;43.01;100098.30;1648280;85;25801;-64
2021/05/20 17:53:23;;;;;;;10.88;9.98;;;;;;;16.12;43.38;100095.51;1632900;85;25857;-63
2021/05/20 17:55:50;;;;;;;10.30;9.50;;;;;;;16.04;43.69;100091.03;1640764;86;25858;-63